sensor_id;sensor_type;location;lat;lon;timestamp;P1;durP1;ratioP1;P2;durP2;ratioP2
49578;SDS011;35483;50.828;3.228;2023-06-19T00:02:07;3.75;;;3.42;;
49578;SDS011;35483;50.828;3.228;2023-06-19T00:04:32;5.90;;;4.20;;
49578;SDS011;35483;50.828;3.228;2023-06-19T00:06:59;4.45;;;3.85;;
49578;SDS011;35483;50.828;3.228;2023-06-19T00:09:25;6.63;;;5.47;;
49578;SDS011;35483;50.828;3.228;2023-06-19T00:11:51;6.97;;;5.30;;
49578;SDS011;35483;50.828;3.228;2023-06-19T00:14:17;6.03;;;4.85;;
49578;SDS011;35483;50.828;3.228;2023-06-19T00:16:43;7.57;;;5.30;;
49578;SDS011;35483;50.828;3.228;2023-06-19T00:19:09;6.05;;;5.15;;
49578;SDS011;35483;50.828;3.228;2023-06-19T00:21:37;7.18;;;5.53;;
49578;SDS011;35483;50.828;3.228;2023-06-19T00:24:03;7.72;;;5.50;;
49578;SDS011;35483;50.828;3.228;2023-06-19T00:26:30;7.75;;;5.65;;
49578;SDS011;35483;50.828;3.228;2023-06-19T00:28:56;8.25;;;5.97;;
49578;SDS011;35483;50.828;3.228;2023-06-19T00:31:22;7.40;;;6.00;;
49578;SDS011;35483;50.828;3.228;2023-06-19T00:33:47;7.97;;;6.03;;
49578;SDS011;35483;50.828;3.228;2023-06-19T00:36:14;8.10;;;6.90;;
49578;SDS011;35483;50.828;3.228;2023-06-19T00:38:42;9.88;;;6.75;;
49578;SDS011;35483;50.828;3.228;2023-06-19T00:41:07;9.18;;;7.18;;
49578;SDS011;35483;50.828;3.228;2023-06-19T00:43:33;10.48;;;7.18;;
49578;SDS011;35483;50.828;3.228;2023-06-19T00:46:00;8.88;;;6.82;;
49578;SDS011;35483;50.828;3.228;2023-06-19T00:48:27;8.55;;;6.82;;
49578;SDS011;35483;50.828;3.228;2023-06-19T00:50:54;9.43;;;7.70;;
49578;SDS011;35483;50.828;3.228;2023-06-19T00:53:21;8.38;;;6.78;;
49578;SDS011;35483;50.828;3.228;2023-06-19T00:55:47;7.63;;;5.72;;
49578;SDS011;35483;50.828;3.228;2023-06-19T00:58:13;6.07;;;4.68;;
49578;SDS011;35483;50.828;3.228;2023-06-19T01:00:40;5.03;;;4.55;;
49578;SDS011;35483;50.828;3.228;2023-06-19T01:03:06;4.90;;;4.05;;
49578;SDS011;35483;50.828;3.228;2023-06-19T01:05:32;5.45;;;3.85;;
49578;SDS011;35483;50.828;3.228;2023-06-19T01:10:47;4.65;;;3.35;;
49578;SDS011;35483;50.828;3.228;2023-06-19T01:16:04;4.80;;;3.95;;
49578;SDS011;35483;50.828;3.228;2023-06-19T01:18:32;8.27;;;4.07;;
49578;SDS011;35483;50.828;3.228;2023-06-19T01:21:14;6.85;;;3.97;;
49578;SDS011;35483;50.828;3.228;2023-06-19T01:23:42;4.32;;;3.50;;
49578;SDS011;35483;50.828;3.228;2023-06-19T01:26:08;6.32;;;4.22;;
49578;SDS011;35483;50.828;3.228;2023-06-19T01:28:35;5.53;;;4.68;;
49578;SDS011;35483;50.828;3.228;2023-06-19T01:31:15;5.68;;;4.82;;
49578;SDS011;35483;50.828;3.228;2023-06-19T01:33:45;6.45;;;5.22;;
49578;SDS011;35483;50.828;3.228;2023-06-19T01:36:15;6.43;;;4.90;;
49578;SDS011;35483;50.828;3.228;2023-06-19T01:38:43;6.88;;;5.45;;
49578;SDS011;35483;50.828;3.228;2023-06-19T01:41:10;8.30;;;6.10;;
49578;SDS011;35483;50.828;3.228;2023-06-19T01:43:37;8.15;;;5.65;;
49578;SDS011;35483;50.828;3.228;2023-06-19T01:46:03;6.50;;;5.80;;
49578;SDS011;35483;50.828;3.228;2023-06-19T01:48:29;9.32;;;7.22;;
49578;SDS011;35483;50.828;3.228;2023-06-19T01:50:55;9.35;;;7.25;;
49578;SDS011;35483;50.828;3.228;2023-06-19T01:53:21;8.15;;;6.60;;
49578;SDS011;35483;50.828;3.228;2023-06-19T01:55:47;7.13;;;6.00;;
49578;SDS011;35483;50.828;3.228;2023-06-19T01:58:13;9.55;;;7.43;;
49578;SDS011;35483;50.828;3.228;2023-06-19T02:00:38;9.10;;;7.60;;
49578;SDS011;35483;50.828;3.228;2023-06-19T02:03:04;10.68;;;7.78;;
49578;SDS011;35483;50.828;3.228;2023-06-19T02:05:31;9.35;;;7.18;;
49578;SDS011;35483;50.828;3.228;2023-06-19T02:07:57;8.88;;;6.55;;
49578;SDS011;35483;50.828;3.228;2023-06-19T02:10:23;9.73;;;7.53;;
49578;SDS011;35483;50.828;3.228;2023-06-19T02:12:48;9.85;;;7.30;;
49578;SDS011;35483;50.828;3.228;2023-06-19T02:15:14;9.70;;;8.10;;
49578;SDS011;35483;50.828;3.228;2023-06-19T02:17:40;9.88;;;7.70;;
49578;SDS011;35483;50.828;3.228;2023-06-19T02:20:08;9.60;;;8.38;;
49578;SDS011;35483;50.828;3.228;2023-06-19T02:22:37;11.30;;;8.55;;
49578;SDS011;35483;50.828;3.228;2023-06-19T02:25:04;8.38;;;7.47;;
49578;SDS011;35483;50.828;3.228;2023-06-19T02:27:30;9.48;;;7.80;;
49578;SDS011;35483;50.828;3.228;2023-06-19T02:29:56;12.82;;;9.25;;
49578;SDS011;35483;50.828;3.228;2023-06-19T02:32:22;10.07;;;8.15;;
49578;SDS011;35483;50.828;3.228;2023-06-19T02:34:47;9.25;;;8.20;;
49578;SDS011;35483;50.828;3.228;2023-06-19T02:37:13;11.90;;;9.15;;
49578;SDS011;35483;50.828;3.228;2023-06-19T02:39:39;11.77;;;9.95;;
49578;SDS011;35483;50.828;3.228;2023-06-19T02:42:05;12.15;;;9.00;;
49578;SDS011;35483;50.828;3.228;2023-06-19T02:44:32;11.00;;;8.88;;
49578;SDS011;35483;50.828;3.228;2023-06-19T02:46:59;10.63;;;9.40;;
49578;SDS011;35483;50.828;3.228;2023-06-19T02:49:24;13.07;;;9.20;;
49578;SDS011;35483;50.828;3.228;2023-06-19T02:51:50;11.82;;;9.15;;
49578;SDS011;35483;50.828;3.228;2023-06-19T02:54:16;12.82;;;11.13;;
49578;SDS011;35483;50.828;3.228;2023-06-19T02:56:41;14.43;;;10.88;;
49578;SDS011;35483;50.828;3.228;2023-06-19T02:59:07;13.55;;;10.15;;
49578;SDS011;35483;50.828;3.228;2023-06-19T03:01:33;14.18;;;10.75;;
49578;SDS011;35483;50.828;3.228;2023-06-19T03:03:59;15.82;;;11.35;;
49578;SDS011;35483;50.828;3.228;2023-06-19T03:06:25;13.52;;;10.50;;
49578;SDS011;35483;50.828;3.228;2023-06-19T03:08:51;15.73;;;12.05;;
49578;SDS011;35483;50.828;3.228;2023-06-19T03:11:17;15.55;;;11.82;;
49578;SDS011;35483;50.828;3.228;2023-06-19T03:13:44;14.80;;;11.52;;
49578;SDS011;35483;50.828;3.228;2023-06-19T03:16:15;18.50;;;12.95;;
49578;SDS011;35483;50.828;3.228;2023-06-19T03:18:41;16.67;;;12.90;;
49578;SDS011;35483;50.828;3.228;2023-06-19T03:21:10;17.42;;;13.43;;
49578;SDS011;35483;50.828;3.228;2023-06-19T03:23:38;18.27;;;13.40;;
49578;SDS011;35483;50.828;3.228;2023-06-19T03:26:06;19.40;;;14.50;;
49578;SDS011;35483;50.828;3.228;2023-06-19T03:28:32;19.23;;;14.07;;
49578;SDS011;35483;50.828;3.228;2023-06-19T03:30:58;17.33;;;13.60;;
49578;SDS011;35483;50.828;3.228;2023-06-19T03:33:24;18.23;;;14.32;;
49578;SDS011;35483;50.828;3.228;2023-06-19T03:35:50;19.08;;;13.48;;
49578;SDS011;35483;50.828;3.228;2023-06-19T03:38:15;18.30;;;13.73;;
49578;SDS011;35483;50.828;3.228;2023-06-19T03:40:41;18.30;;;14.70;;
49578;SDS011;35483;50.828;3.228;2023-06-19T03:43:07;20.58;;;15.70;;
49578;SDS011;35483;50.828;3.228;2023-06-19T03:45:33;20.58;;;16.52;;
49578;SDS011;35483;50.828;3.228;2023-06-19T03:47:59;20.23;;;14.98;;
49578;SDS011;35483;50.828;3.228;2023-06-19T03:50:24;18.10;;;14.45;;
49578;SDS011;35483;50.828;3.228;2023-06-19T03:52:50;20.92;;;15.38;;
49578;SDS011;35483;50.828;3.228;2023-06-19T03:55:16;24.23;;;15.93;;
49578;SDS011;35483;50.828;3.228;2023-06-19T03:57:42;20.65;;;15.77;;
49578;SDS011;35483;50.828;3.228;2023-06-19T04:00:08;20.45;;;15.77;;
49578;SDS011;35483;50.828;3.228;2023-06-19T04:02:36;20.42;;;16.50;;
49578;SDS011;35483;50.828;3.228;2023-06-19T04:05:02;20.70;;;15.70;;
49578;SDS011;35483;50.828;3.228;2023-06-19T04:07:28;17.90;;;14.23;;
49578;SDS011;35483;50.828;3.228;2023-06-19T04:09:55;19.85;;;15.68;;
49578;SDS011;35483;50.828;3.228;2023-06-19T04:12:21;20.33;;;16.17;;
49578;SDS011;35483;50.828;3.228;2023-06-19T04:14:47;21.35;;;15.90;;
49578;SDS011;35483;50.828;3.228;2023-06-19T04:17:13;17.92;;;14.73;;
49578;SDS011;35483;50.828;3.228;2023-06-19T04:19:40;22.80;;;16.17;;
49578;SDS011;35483;50.828;3.228;2023-06-19T04:22:06;18.42;;;15.00;;
49578;SDS011;35483;50.828;3.228;2023-06-19T04:24:32;18.40;;;15.25;;
49578;SDS011;35483;50.828;3.228;2023-06-19T04:27:00;23.13;;;15.45;;
49578;SDS011;35483;50.828;3.228;2023-06-19T04:29:25;19.77;;;14.80;;
49578;SDS011;35483;50.828;3.228;2023-06-19T04:31:51;20.83;;;14.98;;
49578;SDS011;35483;50.828;3.228;2023-06-19T04:34:17;20.90;;;15.60;;
49578;SDS011;35483;50.828;3.228;2023-06-19T04:36:49;21.27;;;15.73;;
49578;SDS011;35483;50.828;3.228;2023-06-19T04:39:14;21.50;;;16.73;;
49578;SDS011;35483;50.828;3.228;2023-06-19T04:41:42;19.67;;;15.18;;
49578;SDS011;35483;50.828;3.228;2023-06-19T04:44:09;21.20;;;16.30;;
49578;SDS011;35483;50.828;3.228;2023-06-19T04:46:38;19.48;;;15.98;;
49578;SDS011;35483;50.828;3.228;2023-06-19T04:49:04;20.25;;;16.05;;
49578;SDS011;35483;50.828;3.228;2023-06-19T04:51:30;16.80;;;14.07;;
49578;SDS011;35483;50.828;3.228;2023-06-19T04:54:00;21.27;;;15.00;;
49578;SDS011;35483;50.828;3.228;2023-06-19T04:56:26;21.75;;;15.75;;
49578;SDS011;35483;50.828;3.228;2023-06-19T04:58:51;22.27;;;16.83;;
49578;SDS011;35483;50.828;3.228;2023-06-19T05:01:19;24.75;;;17.35;;
49578;SDS011;35483;50.828;3.228;2023-06-19T05:03:52;20.63;;;15.70;;
49578;SDS011;35483;50.828;3.228;2023-06-19T05:06:18;18.40;;;14.77;;
49578;SDS011;35483;50.828;3.228;2023-06-19T05:08:44;21.10;;;14.48;;
49578;SDS011;35483;50.828;3.228;2023-06-19T05:11:10;17.88;;;14.15;;
49578;SDS011;35483;50.828;3.228;2023-06-19T05:13:36;19.38;;;14.10;;
49578;SDS011;35483;50.828;3.228;2023-06-19T05:16:02;17.73;;;13.95;;
49578;SDS011;35483;50.828;3.228;2023-06-19T05:18:27;18.92;;;13.30;;
49578;SDS011;35483;50.828;3.228;2023-06-19T05:20:53;20.27;;;14.60;;
49578;SDS011;35483;50.828;3.228;2023-06-19T05:23:19;18.27;;;13.57;;
49578;SDS011;35483;50.828;3.228;2023-06-19T05:25:44;22.40;;;17.23;;
49578;SDS011;35483;50.828;3.228;2023-06-19T05:28:10;21.63;;;14.93;;
49578;SDS011;35483;50.828;3.228;2023-06-19T05:30:36;20.33;;;14.95;;
49578;SDS011;35483;50.828;3.228;2023-06-19T05:33:02;21.00;;;15.23;;
49578;SDS011;35483;50.828;3.228;2023-06-19T05:35:27;19.50;;;14.20;;
49578;SDS011;35483;50.828;3.228;2023-06-19T05:37:55;22.60;;;15.43;;
49578;SDS011;35483;50.828;3.228;2023-06-19T05:40:21;18.83;;;14.73;;
49578;SDS011;35483;50.828;3.228;2023-06-19T05:42:47;21.08;;;14.43;;
49578;SDS011;35483;50.828;3.228;2023-06-19T05:45:12;19.65;;;13.57;;
49578;SDS011;35483;50.828;3.228;2023-06-19T05:47:38;18.77;;;14.35;;
49578;SDS011;35483;50.828;3.228;2023-06-19T05:50:04;17.30;;;14.18;;
49578;SDS011;35483;50.828;3.228;2023-06-19T05:52:30;19.63;;;13.55;;
49578;SDS011;35483;50.828;3.228;2023-06-19T05:54:56;20.42;;;13.27;;
49578;SDS011;35483;50.828;3.228;2023-06-19T05:57:23;19.63;;;13.73;;
49578;SDS011;35483;50.828;3.228;2023-06-19T05:59:49;18.40;;;13.60;;
49578;SDS011;35483;50.828;3.228;2023-06-19T06:02:15;16.83;;;12.77;;
49578;SDS011;35483;50.828;3.228;2023-06-19T06:04:44;18.92;;;12.85;;
49578;SDS011;35483;50.828;3.228;2023-06-19T06:07:10;17.55;;;13.35;;
49578;SDS011;35483;50.828;3.228;2023-06-19T06:09:36;18.42;;;14.25;;
49578;SDS011;35483;50.828;3.228;2023-06-19T06:12:03;17.08;;;13.63;;
49578;SDS011;35483;50.828;3.228;2023-06-19T06:14:29;16.88;;;13.50;;
49578;SDS011;35483;50.828;3.228;2023-06-19T06:16:55;18.80;;;14.27;;
49578;SDS011;35483;50.828;3.228;2023-06-19T06:19:21;19.50;;;13.55;;
49578;SDS011;35483;50.828;3.228;2023-06-19T06:21:48;18.13;;;14.45;;
49578;SDS011;35483;50.828;3.228;2023-06-19T06:24:14;18.52;;;14.32;;
49578;SDS011;35483;50.828;3.228;2023-06-19T06:26:40;20.35;;;14.73;;
49578;SDS011;35483;50.828;3.228;2023-06-19T06:29:06;21.92;;;15.25;;
49578;SDS011;35483;50.828;3.228;2023-06-19T06:31:33;18.13;;;14.15;;
49578;SDS011;35483;50.828;3.228;2023-06-19T06:33:59;17.15;;;13.32;;
49578;SDS011;35483;50.828;3.228;2023-06-19T06:36:25;17.38;;;12.50;;
49578;SDS011;35483;50.828;3.228;2023-06-19T06:38:51;20.73;;;13.57;;
49578;SDS011;35483;50.828;3.228;2023-06-19T06:41:16;20.17;;;13.88;;
49578;SDS011;35483;50.828;3.228;2023-06-19T06:43:42;15.07;;;12.27;;
49578;SDS011;35483;50.828;3.228;2023-06-19T06:46:08;17.23;;;12.63;;
49578;SDS011;35483;50.828;3.228;2023-06-19T06:48:35;17.13;;;12.55;;
49578;SDS011;35483;50.828;3.228;2023-06-19T06:51:01;17.15;;;11.98;;
49578;SDS011;35483;50.828;3.228;2023-06-19T06:53:27;17.60;;;12.13;;
49578;SDS011;35483;50.828;3.228;2023-06-19T06:55:54;19.45;;;12.10;;
49578;SDS011;35483;50.828;3.228;2023-06-19T06:58:20;15.32;;;11.93;;
49578;SDS011;35483;50.828;3.228;2023-06-19T07:00:46;14.35;;;11.05;;
49578;SDS011;35483;50.828;3.228;2023-06-19T07:03:12;13.30;;;10.98;;
49578;SDS011;35483;50.828;3.228;2023-06-19T07:05:38;18.20;;;12.05;;
49578;SDS011;35483;50.828;3.228;2023-06-19T07:08:04;13.90;;;11.10;;
49578;SDS011;35483;50.828;3.228;2023-06-19T07:10:30;13.40;;;10.88;;
49578;SDS011;35483;50.828;3.228;2023-06-19T07:12:56;13.27;;;10.95;;
49578;SDS011;35483;50.828;3.228;2023-06-19T07:15:22;16.65;;;11.45;;
49578;SDS011;35483;50.828;3.228;2023-06-19T07:17:47;13.55;;;11.07;;
49578;SDS011;35483;50.828;3.228;2023-06-19T07:20:13;13.77;;;10.68;;
49578;SDS011;35483;50.828;3.228;2023-06-19T07:22:40;13.02;;;10.82;;
49578;SDS011;35483;50.828;3.228;2023-06-19T07:25:06;13.75;;;10.55;;
49578;SDS011;35483;50.828;3.228;2023-06-19T07:27:33;13.30;;;9.52;;
49578;SDS011;35483;50.828;3.228;2023-06-19T07:29:59;13.10;;;9.95;;
49578;SDS011;35483;50.828;3.228;2023-06-19T07:32:24;12.20;;;9.50;;
49578;SDS011;35483;50.828;3.228;2023-06-19T07:34:50;13.55;;;9.48;;
49578;SDS011;35483;50.828;3.228;2023-06-19T07:37:16;12.75;;;10.15;;
49578;SDS011;35483;50.828;3.228;2023-06-19T07:39:46;13.38;;;9.75;;
49578;SDS011;35483;50.828;3.228;2023-06-19T07:42:15;11.65;;;10.07;;
49578;SDS011;35483;50.828;3.228;2023-06-19T07:44:42;12.88;;;10.27;;
49578;SDS011;35483;50.828;3.228;2023-06-19T07:47:08;12.63;;;10.48;;
49578;SDS011;35483;50.828;3.228;2023-06-19T07:49:34;11.70;;;9.82;;
49578;SDS011;35483;50.828;3.228;2023-06-19T07:52:01;13.48;;;10.05;;
49578;SDS011;35483;50.828;3.228;2023-06-19T07:54:27;12.32;;;10.18;;
49578;SDS011;35483;50.828;3.228;2023-06-19T07:56:53;13.95;;;10.40;;
49578;SDS011;35483;50.828;3.228;2023-06-19T07:59:19;12.05;;;9.50;;
49578;SDS011;35483;50.828;3.228;2023-06-19T08:01:45;13.80;;;9.85;;
49578;SDS011;35483;50.828;3.228;2023-06-19T08:04:10;12.73;;;10.43;;
49578;SDS011;35483;50.828;3.228;2023-06-19T08:06:36;12.10;;;9.20;;
49578;SDS011;35483;50.828;3.228;2023-06-19T08:09:02;14.65;;;9.70;;
49578;SDS011;35483;50.828;3.228;2023-06-19T08:11:29;13.15;;;8.40;;
49578;SDS011;35483;50.828;3.228;2023-06-19T08:13:55;11.25;;;9.55;;
49578;SDS011;35483;50.828;3.228;2023-06-19T08:16:21;11.45;;;9.45;;
49578;SDS011;35483;50.828;3.228;2023-06-19T08:18:46;13.20;;;9.23;;
49578;SDS011;35483;50.828;3.228;2023-06-19T08:21:12;10.85;;;8.10;;
49578;SDS011;35483;50.828;3.228;2023-06-19T08:23:38;8.90;;;7.45;;
49578;SDS011;35483;50.828;3.228;2023-06-19T08:26:05;12.15;;;7.93;;
49578;SDS011;35483;50.828;3.228;2023-06-19T08:28:33;11.73;;;8.27;;
49578;SDS011;35483;50.828;3.228;2023-06-19T08:30:59;10.00;;;7.93;;
49578;SDS011;35483;50.828;3.228;2023-06-19T08:33:25;10.95;;;8.13;;
49578;SDS011;35483;50.828;3.228;2023-06-19T08:35:51;14.30;;;7.95;;
49578;SDS011;35483;50.828;3.228;2023-06-19T08:38:17;9.45;;;7.05;;
49578;SDS011;35483;50.828;3.228;2023-06-19T08:40:44;11.57;;;8.48;;
49578;SDS011;35483;50.828;3.228;2023-06-19T08:43:10;12.50;;;7.78;;
49578;SDS011;35483;50.828;3.228;2023-06-19T08:45:36;9.65;;;7.47;;
49578;SDS011;35483;50.828;3.228;2023-06-19T08:48:02;13.05;;;8.63;;
49578;SDS011;35483;50.828;3.228;2023-06-19T08:50:31;8.23;;;7.25;;
49578;SDS011;35483;50.828;3.228;2023-06-19T08:52:57;10.48;;;7.53;;
49578;SDS011;35483;50.828;3.228;2023-06-19T08:55:23;7.90;;;5.95;;
49578;SDS011;35483;50.828;3.228;2023-06-19T08:57:50;10.35;;;7.32;;
49578;SDS011;35483;50.828;3.228;2023-06-19T09:00:26;9.23;;;7.53;;
49578;SDS011;35483;50.828;3.228;2023-06-19T09:02:58;9.98;;;8.00;;
49578;SDS011;35483;50.828;3.228;2023-06-19T09:05:26;11.32;;;7.97;;
49578;SDS011;35483;50.828;3.228;2023-06-19T09:07:56;10.88;;;8.07;;
49578;SDS011;35483;50.828;3.228;2023-06-19T09:10:23;10.20;;;7.00;;
49578;SDS011;35483;50.828;3.228;2023-06-19T09:12:56;10.23;;;7.28;;
49578;SDS011;35483;50.828;3.228;2023-06-19T09:15:23;10.50;;;7.10;;
49578;SDS011;35483;50.828;3.228;2023-06-19T09:18:04;9.50;;;7.30;;
49578;SDS011;35483;50.828;3.228;2023-06-19T09:20:33;11.52;;;7.65;;
49578;SDS011;35483;50.828;3.228;2023-06-19T09:23:04;7.60;;;6.05;;
49578;SDS011;35483;50.828;3.228;2023-06-19T09:25:30;8.30;;;5.95;;
49578;SDS011;35483;50.828;3.228;2023-06-19T09:27:56;7.72;;;6.43;;
49578;SDS011;35483;50.828;3.228;2023-06-19T09:30:22;9.50;;;7.45;;
49578;SDS011;35483;50.828;3.228;2023-06-19T09:32:49;8.25;;;6.90;;
49578;SDS011;35483;50.828;3.228;2023-06-19T09:35:14;8.80;;;7.03;;
49578;SDS011;35483;50.828;3.228;2023-06-19T09:37:41;7.22;;;6.30;;
49578;SDS011;35483;50.828;3.228;2023-06-19T09:40:08;8.45;;;6.90;;
49578;SDS011;35483;50.828;3.228;2023-06-19T09:42:38;7.78;;;6.68;;
49578;SDS011;35483;50.828;3.228;2023-06-19T09:45:11;8.02;;;5.88;;
49578;SDS011;35483;50.828;3.228;2023-06-19T09:47:46;7.85;;;6.30;;
49578;SDS011;35483;50.828;3.228;2023-06-19T09:50:13;9.10;;;7.07;;
49578;SDS011;35483;50.828;3.228;2023-06-19T09:52:40;10.48;;;6.13;;
49578;SDS011;35483;50.828;3.228;2023-06-19T09:55:07;7.15;;;6.38;;
49578;SDS011;35483;50.828;3.228;2023-06-19T09:57:35;7.35;;;5.95;;
49578;SDS011;35483;50.828;3.228;2023-06-19T10:00:04;6.97;;;5.68;;
49578;SDS011;35483;50.828;3.228;2023-06-19T10:02:41;7.40;;;6.45;;
49578;SDS011;35483;50.828;3.228;2023-06-19T10:05:08;8.80;;;5.93;;
49578;SDS011;35483;50.828;3.228;2023-06-19T10:07:37;7.20;;;5.53;;
49578;SDS011;35483;50.828;3.228;2023-06-19T10:10:05;9.52;;;6.80;;
49578;SDS011;35483;50.828;3.228;2023-06-19T10:12:36;8.23;;;6.65;;
49578;SDS011;35483;50.828;3.228;2023-06-19T10:15:14;8.38;;;7.13;;
49578;SDS011;35483;50.828;3.228;2023-06-19T10:17:43;9.15;;;6.97;;
49578;SDS011;35483;50.828;3.228;2023-06-19T10:20:23;7.22;;;6.53;;
49578;SDS011;35483;50.828;3.228;2023-06-19T10:25:27;5.93;;;5.22;;
49578;SDS011;35483;50.828;3.228;2023-06-19T10:27:56;7.40;;;4.93;;
49578;SDS011;35483;50.828;3.228;2023-06-19T10:30:22;6.50;;;5.05;;
49578;SDS011;35483;50.828;3.228;2023-06-19T10:32:49;5.97;;;5.35;;
49578;SDS011;35483;50.828;3.228;2023-06-19T10:35:15;9.07;;;5.85;;
49578;SDS011;35483;50.828;3.228;2023-06-19T10:37:43;6.50;;;5.35;;
49578;SDS011;35483;50.828;3.228;2023-06-19T10:40:10;6.22;;;4.90;;
49578;SDS011;35483;50.828;3.228;2023-06-19T10:42:37;7.25;;;5.57;;
49578;SDS011;35483;50.828;3.228;2023-06-19T10:45:05;7.75;;;5.65;;
49578;SDS011;35483;50.828;3.228;2023-06-19T10:47:34;7.18;;;6.22;;
49578;SDS011;35483;50.828;3.228;2023-06-19T10:50:00;7.35;;;5.57;;
49578;SDS011;35483;50.828;3.228;2023-06-19T10:52:30;5.85;;;5.20;;
49578;SDS011;35483;50.828;3.228;2023-06-19T10:54:56;7.00;;;5.20;;
49578;SDS011;35483;50.828;3.228;2023-06-19T10:57:29;6.55;;;5.88;;
49578;SDS011;35483;50.828;3.228;2023-06-19T10:59:55;8.00;;;4.90;;
49578;SDS011;35483;50.828;3.228;2023-06-19T11:02:21;8.27;;;5.00;;
49578;SDS011;35483;50.828;3.228;2023-06-19T11:04:48;7.32;;;5.50;;
49578;SDS011;35483;50.828;3.228;2023-06-19T11:07:14;9.07;;;5.30;;
49578;SDS011;35483;50.828;3.228;2023-06-19T11:09:39;7.00;;;5.30;;
49578;SDS011;35483;50.828;3.228;2023-06-19T11:12:05;7.65;;;6.10;;
49578;SDS011;35483;50.828;3.228;2023-06-19T11:14:33;4.82;;;4.32;;
49578;SDS011;35483;50.828;3.228;2023-06-19T11:17:05;5.13;;;4.35;;
49578;SDS011;35483;50.828;3.228;2023-06-19T11:19:31;5.43;;;4.35;;
49578;SDS011;35483;50.828;3.228;2023-06-19T11:22:01;6.63;;;5.30;;
49578;SDS011;35483;50.828;3.228;2023-06-19T11:24:28;6.18;;;5.25;;
49578;SDS011;35483;50.828;3.228;2023-06-19T11:26:55;18.05;;;6.53;;
49578;SDS011;35483;50.828;3.228;2023-06-19T11:29:29;6.85;;;4.88;;
49578;SDS011;35483;50.828;3.228;2023-06-19T11:32:05;6.50;;;5.78;;
49578;SDS011;35483;50.828;3.228;2023-06-19T11:34:37;6.47;;;5.75;;
49578;SDS011;35483;50.828;3.228;2023-06-19T11:37:13;8.95;;;6.05;;
49578;SDS011;35483;50.828;3.228;2023-06-19T11:39:39;7.55;;;6.00;;
49578;SDS011;35483;50.828;3.228;2023-06-19T11:42:07;6.22;;;5.50;;
49578;SDS011;35483;50.828;3.228;2023-06-19T11:44:33;7.63;;;6.07;;
49578;SDS011;35483;50.828;3.228;2023-06-19T11:46:59;6.95;;;5.15;;
49578;SDS011;35483;50.828;3.228;2023-06-19T11:49:25;10.10;;;6.30;;
49578;SDS011;35483;50.828;3.228;2023-06-19T11:51:53;7.25;;;6.05;;
49578;SDS011;35483;50.828;3.228;2023-06-19T11:54:19;7.25;;;6.55;;
49578;SDS011;35483;50.828;3.228;2023-06-19T11:56:45;7.38;;;6.13;;
49578;SDS011;35483;50.828;3.228;2023-06-19T11:59:12;6.32;;;5.72;;
49578;SDS011;35483;50.828;3.228;2023-06-19T12:01:39;7.95;;;6.38;;
49578;SDS011;35483;50.828;3.228;2023-06-19T12:04:05;6.63;;;5.97;;
49578;SDS011;35483;50.828;3.228;2023-06-19T12:06:31;7.13;;;5.72;;
49578;SDS011;35483;50.828;3.228;2023-06-19T12:08:57;6.85;;;5.93;;
49578;SDS011;35483;50.828;3.228;2023-06-19T12:11:23;7.80;;;5.65;;
49578;SDS011;35483;50.828;3.228;2023-06-19T12:13:50;7.15;;;5.75;;
49578;SDS011;35483;50.828;3.228;2023-06-19T12:16:16;7.00;;;5.32;;
49578;SDS011;35483;50.828;3.228;2023-06-19T12:18:41;6.60;;;5.90;;
49578;SDS011;35483;50.828;3.228;2023-06-19T12:21:07;6.78;;;5.40;;
49578;SDS011;35483;50.828;3.228;2023-06-19T12:23:33;8.00;;;5.63;;
49578;SDS011;35483;50.828;3.228;2023-06-19T12:26:00;8.10;;;6.25;;
49578;SDS011;35483;50.828;3.228;2023-06-19T12:28:26;7.22;;;5.40;;
49578;SDS011;35483;50.828;3.228;2023-06-19T12:30:52;8.20;;;5.75;;
49578;SDS011;35483;50.828;3.228;2023-06-19T12:33:18;9.10;;;5.70;;
49578;SDS011;35483;50.828;3.228;2023-06-19T12:35:45;6.97;;;5.75;;
49578;SDS011;35483;50.828;3.228;2023-06-19T12:38:11;5.43;;;4.90;;
49578;SDS011;35483;50.828;3.228;2023-06-19T12:40:38;7.43;;;5.55;;
49578;SDS011;35483;50.828;3.228;2023-06-19T12:43:04;7.40;;;5.93;;
49578;SDS011;35483;50.828;3.228;2023-06-19T12:45:29;6.30;;;5.68;;
49578;SDS011;35483;50.828;3.228;2023-06-19T12:47:55;6.68;;;5.40;;
49578;SDS011;35483;50.828;3.228;2023-06-19T12:50:21;7.88;;;5.40;;
49578;SDS011;35483;50.828;3.228;2023-06-19T12:52:47;8.60;;;5.25;;
49578;SDS011;35483;50.828;3.228;2023-06-19T12:55:13;7.88;;;5.47;;
49578;SDS011;35483;50.828;3.228;2023-06-19T12:57:39;6.05;;;5.03;;
49578;SDS011;35483;50.828;3.228;2023-06-19T13:00:06;5.65;;;5.05;;
49578;SDS011;35483;50.828;3.228;2023-06-19T13:02:37;6.35;;;5.20;;
49578;SDS011;35483;50.828;3.228;2023-06-19T13:05:03;6.70;;;5.50;;
49578;SDS011;35483;50.828;3.228;2023-06-19T13:07:28;6.68;;;5.20;;
49578;SDS011;35483;50.828;3.228;2023-06-19T13:09:54;6.20;;;5.60;;
49578;SDS011;35483;50.828;3.228;2023-06-19T13:12:21;5.75;;;5.25;;
49578;SDS011;35483;50.828;3.228;2023-06-19T13:14:47;6.00;;;5.40;;
49578;SDS011;35483;50.828;3.228;2023-06-19T13:17:13;6.35;;;5.15;;
49578;SDS011;35483;50.828;3.228;2023-06-19T13:19:39;6.57;;;5.10;;
49578;SDS011;35483;50.828;3.228;2023-06-19T13:22:05;5.95;;;5.35;;
49578;SDS011;35483;50.828;3.228;2023-06-19T13:24:31;6.43;;;5.68;;
49578;SDS011;35483;50.828;3.228;2023-06-19T13:26:56;7.28;;;5.50;;
49578;SDS011;35483;50.828;3.228;2023-06-19T13:29:22;6.70;;;5.10;;
49578;SDS011;35483;50.828;3.228;2023-06-19T13:31:48;7.25;;;5.68;;
49578;SDS011;35483;50.828;3.228;2023-06-19T13:34:14;5.57;;;5.00;;
49578;SDS011;35483;50.828;3.228;2023-06-19T13:36:39;5.93;;;4.65;;
49578;SDS011;35483;50.828;3.228;2023-06-19T13:39:05;5.38;;;4.72;;
49578;SDS011;35483;50.828;3.228;2023-06-19T13:41:31;5.28;;;4.57;;
49578;SDS011;35483;50.828;3.228;2023-06-19T13:43:58;6.40;;;4.90;;
49578;SDS011;35483;50.828;3.228;2023-06-19T13:46:24;8.25;;;5.63;;
49578;SDS011;35483;50.828;3.228;2023-06-19T13:48:50;6.25;;;5.53;;
49578;SDS011;35483;50.828;3.228;2023-06-19T13:51:17;6.03;;;5.35;;
49578;SDS011;35483;50.828;3.228;2023-06-19T13:53:43;6.05;;;5.20;;
49578;SDS011;35483;50.828;3.228;2023-06-19T13:56:09;6.20;;;4.95;;
49578;SDS011;35483;50.828;3.228;2023-06-19T13:58:35;5.32;;;4.82;;
49578;SDS011;35483;50.828;3.228;2023-06-19T14:01:01;5.70;;;4.50;;
49578;SDS011;35483;50.828;3.228;2023-06-19T14:03:26;6.78;;;5.40;;
49578;SDS011;35483;50.828;3.228;2023-06-19T14:05:52;6.03;;;5.15;;
49578;SDS011;35483;50.828;3.228;2023-06-19T14:08:19;7.28;;;5.57;;
49578;SDS011;35483;50.828;3.228;2023-06-19T14:10:44;5.90;;;4.80;;
49578;SDS011;35483;50.828;3.228;2023-06-19T14:13:10;7.95;;;4.95;;
49578;SDS011;35483;50.828;3.228;2023-06-19T14:15:35;8.90;;;5.35;;
49578;SDS011;35483;50.828;3.228;2023-06-19T14:18:01;4.82;;;4.28;;
49578;SDS011;35483;50.828;3.228;2023-06-19T14:20:27;6.82;;;4.80;;
49578;SDS011;35483;50.828;3.228;2023-06-19T14:22:53;6.72;;;4.88;;
49578;SDS011;35483;50.828;3.228;2023-06-19T14:25:19;5.30;;;4.47;;
49578;SDS011;35483;50.828;3.228;2023-06-19T14:27:45;4.90;;;4.50;;
49578;SDS011;35483;50.828;3.228;2023-06-19T14:30:11;4.78;;;4.35;;
49578;SDS011;35483;50.828;3.228;2023-06-19T14:32:37;6.07;;;4.60;;
49578;SDS011;35483;50.828;3.228;2023-06-19T14:35:03;6.28;;;4.55;;
49578;SDS011;35483;50.828;3.228;2023-06-19T14:37:29;4.78;;;4.38;;
49578;SDS011;35483;50.828;3.228;2023-06-19T14:39:55;5.13;;;4.63;;
49578;SDS011;35483;50.828;3.228;2023-06-19T14:42:20;6.07;;;4.40;;
49578;SDS011;35483;50.828;3.228;2023-06-19T14:44:46;4.90;;;4.43;;